Flight Track Log - Related Links

Times and Time Zones

All times are in EDT time to prevent confusion due to time zone crossing. See the UAL4295 flight status page for this flight to view local times or setup timezone preferences in your user account.

Time Position Orientation Groundspeed Altitude Reporting Facility
EDT Latitude Longitude Course Direction KTS MPH feet Rate Location/Type
Thu 02:47:12 PM 29.9811 -95.3483 41° Northeast 190 219 1,000  Level Houston Center
Thu 02:48:13 PM 30.0375 -95.3464 North 224 258 2,200 1,377 Climbing Houston Center
Thu 02:49:14 PM 30.1017 -95.3364 North 240 276 3,800 1,770 Climbing Houston Center
Thu 02:50:00 PM 30.3983 -95.1675 23° Northeast  Level FlightAware Approximate
Thu 02:50:15 PM 30.1639 -95.3044 24° Northeast 246 283 5,800  Level Houston Center
Thu 02:51:00 PM 30.4974 -95.1116 27° Northeast  Level FlightAware Approximate
Thu 02:51:17 PM 30.2281 -95.2725 23° Northeast 253 291 7,600  Level Houston Center
Thu 02:52:00 PM 30.5942 -95.0558 41° Northeast  Level FlightAware Approximate
Thu 02:52:27 PM 30.3058 -95.2344 23° Northeast 264 304 9,700  Level Houston Center
Thu 02:53:29 PM 30.3797 -95.1978 23° Northeast 285 328 10,600 823 Climbing Houston Center
Thu 02:54:31 PM 30.4667 -95.1514 25° Northeast 325 374 11,400 823 Climbing Houston Center
Thu 02:55:33 PM 30.5517 -95.0992 28° Northeast 343 395 12,300 912 Climbing Houston Center
Thu 02:56:36 PM 30.6394 -95.0444 28° Northeast 356 410 13,300 1,056 Climbing Houston Center
Thu 02:57:38 PM 30.7447 -94.9789 28° Northeast 357 411 14,500 1,065 Climbing Houston Center
Thu 02:58:40 PM 30.8328 -94.9233 28° Northeast 361 415 15,500 968 Climbing Houston Center
Thu 02:59:42 PM 30.9225 -94.8681 28° Northeast 364 419 16,500 871 Climbing Houston Center
Thu 03:00:44 PM 31.0122 -94.8114 28° Northeast 368 423 17,300 726 Climbing Houston Center
Thu 03:01:46 PM 31.1053 -94.7533 28° Northeast 378 435 18,000 759 Climbing Houston Center
Thu 03:02:03 PM 31.1350 -94.7367 26° Northeast 371 427 18,300 857 Climbing Fort Worth Center
Thu 03:03:03 PM 31.2233 -94.6733 32° Northeast 365 420 19,100 850 Climbing Fort Worth Center
Thu 03:04:03 PM 31.3222 -94.6094 29° Northeast 377 434 20,000 850 Climbing Fort Worth Center
Thu 03:05:03 PM 31.4167 -94.5408 32° Northeast 383 441 20,800 850 Climbing Fort Worth Center
Thu 03:06:03 PM 31.5131 -94.4747 30° Northeast 390 449 21,700 900 Climbing Fort Worth Center
Thu 03:07:03 PM 31.6097 -94.4081 30° Northeast 395 455 22,600 900 Climbing Fort Worth Center
Thu 03:08:03 PM 31.7061 -94.3414 30° Northeast 395 455 23,500 800 Climbing Fort Worth Center
Thu 03:09:03 PM 31.8006 -94.2725 32° Northeast 400 460 24,200 700 Climbing Fort Worth Center
Thu 03:10:03 PM 31.8925 -94.1908 37° Northeast 400 460 24,900 400 Climbing Fort Worth Center
Thu 03:11:03 PM 31.9819 -94.1022 40° Northeast 405 466 25,000 50 Climbing Fort Worth Center
Thu 03:12:03 PM 32.0758 -94.0153 38° Northeast 418 481 25,000  Level Fort Worth Center
Thu 03:13:03 PM 32.1711 -93.9211 40° Northeast 429 494 25,000  Level Fort Worth Center
Thu 03:14:03 PM 32.2647 -93.8267 40° Northeast 436 502 25,000  Level Fort Worth Center
Thu 03:15:03 PM 32.3619 -93.7317 40° Northeast 449 517 25,000  Level Fort Worth Center
Thu 03:16:03 PM 32.4614 -93.6342 40° Northeast 449 517 25,000  Level Fort Worth Center
Thu 03:17:03 PM 32.5567 -93.5389 40° Northeast 449 517 25,000  Level Fort Worth Center
Thu 03:18:03 PM 32.6661 -93.4306 40° Northeast 455 524 25,000  Level Fort Worth Center
Thu 03:19:03 PM 32.7653 -93.3347 39° Northeast 455 524 25,000  Level Fort Worth Center
Thu 03:20:03 PM 32.8622 -93.2389 40° Northeast 455 524 25,000  Level Fort Worth Center
Thu 03:21:03 PM 32.9592 -93.1428 40° Northeast 455 524 25,000  Level Fort Worth Center
Thu 03:22:03 PM 33.0600 -93.0414 40° Northeast 460 529 25,000  Level Fort Worth Center
Thu 03:23:03 PM 33.1569 -92.9472 39° Northeast 455 524 25,000  Level Fort Worth Center
Thu 03:24:57 PM 33.3292 -92.7739 40° Northeast 477 549 25,000  Level Memphis Center
Thu 03:25:57 PM 33.4269 -92.6769 40° Northeast 471 542 25,000  Level Memphis Center
Thu 03:26:57 PM 33.5247 -92.5775 40° Northeast 465 535 25,000  Level Memphis Center
Thu 03:27:57 PM 33.6225 -92.4778 40° Northeast 458 527 25,000  Level Memphis Center
Thu 03:28:57 PM 33.7203 -92.3800 40° Northeast 458 527 25,000  Level Memphis Center
Thu 03:29:57 PM 33.8197 -92.2825 39° Northeast 464 534 25,000  Level Memphis Center
Thu 03:30:57 PM 33.9194 -92.1819 40° Northeast 464 534 25,000  Level Memphis Center
Thu 03:31:57 PM 34.0147 -92.0814 41° Northeast 464 534 25,000  Level Memphis Center
Thu 03:32:57 PM 34.1228 -91.9631 42° Northeast 464 534 25,000  Level Memphis Center
Thu 03:33:57 PM 34.2200 -91.8642 40° Northeast 464 534 25,000  Level Memphis Center
Thu 03:34:57 PM 34.3089 -91.7678 42° Northeast 464 534 25,000  Level Memphis Center
Thu 03:35:57 PM 34.4081 -91.6686 40° Northeast 458 527 25,000  Level Memphis Center
Thu 03:36:57 PM 34.5092 -91.5669 40° Northeast 464 534 25,000  Level Memphis Center
Thu 03:37:57 PM 34.6039 -91.4622 42° Northeast 465 535 25,000  Level Memphis Center
Thu 03:38:57 PM 34.7072 -91.3575 40° Northeast 465 535 25,000  Level Memphis Center
Thu 03:39:57 PM 34.8122 -91.2450 41° Northeast 465 535 25,000  Level Memphis Center
Thu 03:40:57 PM 34.9111 -91.1422 40° Northeast 465 535 25,000  Level Memphis Center
Thu 03:41:57 PM 35.0117 -91.0367 41° Northeast 465 535 25,000  Level Memphis Center
Thu 03:42:57 PM 35.1083 -90.9333 41° Northeast 465 535 25,000  Level Memphis Center
Thu 03:43:57 PM 35.2067 -90.8272 41° Northeast 465 535 25,000  Level Memphis Center
Thu 03:44:57 PM 35.3053 -90.7233 41° Northeast 465 535 25,000  Level Memphis Center
Thu 03:45:57 PM 35.4033 -90.6169 41° Northeast 465 535 25,000  Level Memphis Center
Thu 03:46:57 PM 35.4911 -90.5228 41° Northeast 465 535 25,000  Level Memphis Center
Thu 03:47:57 PM 35.5872 -90.4183 41° Northeast 465 535 25,000  Level Memphis Center
Thu 03:48:57 PM 35.6853 -90.3111 42° Northeast 459 528 25,000  Level Memphis Center
Thu 03:49:57 PM 35.7872 -90.1958 43° Northeast 459 528 25,000  Level Memphis Center
Thu 03:50:57 PM 35.8853 -90.0906 41° Northeast 459 528 25,000  Level Memphis Center
Thu 03:51:57 PM 35.9808 -89.9825 42° Northeast 465 535 25,000  Level Memphis Center
Thu 03:52:57 PM 36.0806 -89.8742 41° Northeast 465 535 25,000  Level Memphis Center
Thu 03:53:57 PM 36.1781 -89.7681 41° Northeast 465 535 25,000  Level Memphis Center
Thu 03:54:57 PM 36.2733 -89.6619 42° Northeast 465 535 25,000  Level Memphis Center
Thu 03:55:57 PM 36.3728 -89.5528 41° Northeast 465 535 25,000  Level Memphis Center
Thu 03:56:57 PM 36.4617 -89.4592 40° Northeast 465 535 25,000  Level Memphis Center
Thu 03:57:57 PM 36.5608 -89.3442 43° Northeast 470 541 25,000  Level Memphis Center
Thu 03:58:57 PM 36.6581 -89.2344 42° Northeast 470 541 25,000  Level Memphis Center
Thu 03:59:57 PM 36.7528 -89.1269 42° Northeast 463 533 25,000  Level Memphis Center
Thu 04:00:57 PM 36.8497 -89.0192 42° Northeast 463 533 25,000  Level Memphis Center
Thu 04:01:57 PM 36.9464 -88.9083 42° Northeast 463 533 25,000  Level Memphis Center
Thu 04:02:57 PM 37.0408 -88.8003 42° Northeast 463 533 25,000  Level Memphis Center
Thu 04:03:57 PM 37.1394 -88.6917 41° Northeast 463 533 25,000  Level Memphis Center
Thu 04:04:57 PM 37.2336 -88.5803 43° Northeast 463 533 25,000  Level Memphis Center
Thu 04:05:57 PM 37.3300 -88.4711 42° Northeast 463 533 25,000  Level Memphis Center
Thu 04:07:14 PM 37.4539 -88.3178 44° Northeast 468 539 25,000  Level Indianapolis Center
Thu 04:08:16 PM 37.5506 -88.2050 43° Northeast 469 540 25,000  Level Indianapolis Center
Thu 04:09:18 PM 37.6475 -88.0911 43° Northeast 470 541 25,000  Level Indianapolis Center
Thu 04:10:20 PM 37.7447 -87.9786 42° Northeast 470 541 25,000  Level Indianapolis Center
Thu 04:11:22 PM 37.8428 -87.8614 43° Northeast 471 542 25,000  Level Indianapolis Center
Thu 04:12:24 PM 37.9372 -87.7458 44° Northeast 471 542 25,000  Level Indianapolis Center
Thu 04:13:26 PM 38.0044 -87.6039 59° Northeast 467 537 25,000  Level Indianapolis Center
Thu 04:14:28 PM 38.0697 -87.4242 65° Northeast 467 537 25,000  Level Indianapolis Center
Thu 04:15:30 PM 38.1242 -87.2742 65° Northeast 468 539 25,000  Level Indianapolis Center
Thu 04:16:32 PM 38.1781 -87.1247 65° Northeast 471 542 25,000  Level Indianapolis Center
Thu 04:17:34 PM 38.2306 -86.9767 66° East 473 544 25,000  Level Indianapolis Center
Thu 04:18:36 PM 38.2947 -86.7989 65° Northeast 470 541 25,000  Level Indianapolis Center
Thu 04:19:38 PM 38.3483 -86.6478 66° East 468 539 25,000  Level Indianapolis Center
Thu 04:20:40 PM 38.4028 -86.4981 65° Northeast 466 536 25,000  Level Indianapolis Center
Thu 04:21:42 PM 38.4558 -86.3442 66° East 470 541 25,000  Level Indianapolis Center
Thu 04:22:44 PM 38.5094 -86.1925 66° East 469 540 25,000  Level Indianapolis Center
Thu 04:23:46 PM 38.5631 -86.0386 66° East 471 542 25,000  Level Indianapolis Center
Thu 04:24:49 PM 38.6267 -85.8544 66° East 471 542 25,000  Level Indianapolis Center
Thu 04:25:51 PM 38.6744 -85.7161 66° East 472 543 25,000  Level Indianapolis Center
Thu 04:26:53 PM 38.7267 -85.5622 66° East 474 545 25,000  Level Indianapolis Center
Thu 04:27:55 PM 38.7900 -85.3792 66° East 473 544 25,000 -145 Level Indianapolis Center
Thu 04:28:57 PM 38.8417 -85.2267 66° East 470 541 24,700 -532 Descending Indianapolis Center
Thu 04:29:59 PM 38.8917 -85.0775 67° East 460 529 23,900 -774 Descending Indianapolis Center
Thu 04:31:01 PM 38.9422 -84.9269 67° East 462 532 23,100 -823 Descending Indianapolis Center
Thu 04:32:03 PM 38.9917 -84.7792 67° East 450 518 22,200 -919 Descending Indianapolis Center
Thu 04:33:05 PM 39.0619 -84.6197 60° Northeast 438 504 21,200 -919 Descending Indianapolis Center
Thu 04:34:07 PM 39.1331 -84.4925 54° Northeast 435 501 20,300 -823 Descending Indianapolis Center
Thu 04:35:09 PM 39.2033 -84.3647 55° Northeast 433 498 19,500 -629 Descending Indianapolis Center
Thu 04:36:11 PM 39.2722 -84.2397 55° Northeast 426 490 19,000 -290 Descending Indianapolis Center
Thu 04:37:13 PM 39.3292 -84.1075 61° Northeast 422 486 18,900  Descending Indianapolis Center
Thu 04:38:15 PM 39.3819 -83.9703 64° Northeast 423 487 19,000 -968 Climbing Indianapolis Center
Thu 04:39:17 PM 39.4339 -83.8328 64° Northeast 423 487 16,900 -1,581 Descending Indianapolis Center
Thu 04:41:00 PM 39.5118 -83.5980 67° East  Level FlightAware Approximate
Thu 04:44:27 PM 39.6897 -83.3097 115° Southeast 311 358 9,200  Level Indianapolis Center
Thu 04:45:14 PM 39.7678 -83.3067 287° West 304 350 7,900 -1,556 Descending Indianapolis Center
Thu 04:46:00 PM 39.7655 -83.1242 52° Northeast  Level FlightAware Approximate
Thu 04:46:15 PM 39.8436 -83.2697 21° North 274 315 6,400  Level Indianapolis Center
Thu 04:46:31 PM 39.8567 -83.2569 37° Northeast 283 326 6,100 -1,091 Descending Indianapolis Center
Thu 04:47:10 PM 39.8897 -83.2097 48° Northeast 257 296 5,400 -1,077 Descending Indianapolis Center
Thu 04:48:00 PM 39.9980 -82.8920 96° East  Level Estimated
Thu 04:49:00 PM 39.9980 -82.8920 115° Southeast  Level Estimated
Thu 04:53:00 PM 39.9980 -82.8920 287° West  Level Estimated

Login

Don't have an account? Register now (free) for customized features, flight alerts, and more!